createdAt,value
2022-08-07T00:01:44.256Z,76.57
2022-08-07T00:04:06.112Z,77.83
2022-08-07T00:06:36.110Z,77.34
2022-08-07T00:09:16.911Z,76.38
2022-08-07T00:11:55.599Z,75.22
2022-08-07T00:14:30.260Z,76.03
2022-08-07T00:17:02.488Z,75.50
2022-08-07T00:20:00.156Z,77.16
2022-08-07T00:22:24.592Z,75.37
2022-08-07T00:25:04.279Z,77.25
2022-08-07T00:27:35.856Z,76.71
2022-08-07T00:30:26.450Z,77.18
2022-08-07T00:32:56.511Z,77.09
2022-08-07T00:35:23.281Z,76.73
2022-08-07T00:37:50.862Z,78.17
2022-08-07T00:40:36.472Z,78.46
2022-08-07T00:43:04.832Z,79.27
2022-08-07T00:45:36.857Z,79.31
2022-08-07T00:48:10.423Z,79.58
2022-08-07T00:50:51.331Z,78.94
2022-08-07T00:53:20.646Z,78.69
2022-08-07T00:56:00.476Z,78.40
2022-08-07T00:58:30.225Z,78.87
2022-08-07T01:00:56.946Z,78.53
2022-08-07T01:03:54.564Z,78.31
2022-08-07T01:06:10.270Z,78.94
2022-08-07T01:08:43.040Z,78.77
2022-08-07T01:12:23.739Z,79.77
2022-08-07T01:14:05.089Z,79.71
2022-08-07T01:16:32.036Z,79.15
2022-08-07T01:19:01.738Z,78.77
2022-08-07T01:21:30.992Z,77.65
2022-08-07T01:23:58.330Z,78.92
2022-08-07T01:26:26.245Z,78.12
2022-08-07T01:28:54.090Z,79.58
2022-08-07T01:31:21.312Z,79.04
2022-08-07T01:33:55.522Z,78.85
2022-08-07T01:36:33.832Z,78.69
2022-08-07T01:39:09.920Z,77.56
2022-08-07T01:41:38.917Z,78.33
2022-08-07T01:44:08.077Z,79.37
2022-08-07T01:46:34.886Z,79.03
2022-08-07T01:49:02.440Z,79.68
2022-08-07T01:52:02.074Z,80.86
2022-08-07T01:54:32.815Z,80.33
2022-08-07T01:57:08.491Z,79.61
2022-08-07T01:59:55.137Z,80.14
2022-08-07T02:03:18.899Z,80.44
2022-08-07T02:05:43.495Z,79.55
2022-08-07T02:08:19.751Z,80.13
2022-08-07T02:10:58.136Z,80.30
2022-08-07T02:13:57.590Z,80.69
2022-08-07T02:16:19.731Z,81.11
2022-08-07T02:18:47.885Z,80.52
2022-08-07T02:21:16.627Z,80.78
2022-08-07T02:23:45.046Z,81.59
2022-08-07T02:26:33.016Z,81.78
2022-08-07T02:29:02.345Z,82.08
2022-08-07T02:31:30.994Z,81.72
2022-08-07T02:34:03.524Z,82.18
2022-08-07T02:36:34.011Z,82.25
2022-08-07T02:39:15.987Z,83.27
2022-08-07T02:41:50.509Z,84.33
2022-08-07T02:44:23.729Z,85.71
2022-08-07T02:46:56.301Z,86.11
2022-08-07T02:49:56.507Z,86.93
2022-08-07T02:52:17.279Z,86.43
2022-08-07T02:54:50.538Z,87.26
2022-08-07T02:57:22.447Z,88.54
2022-08-07T02:59:54.962Z,89.51
2022-08-07T03:02:22.917Z,91.17
2022-08-07T03:04:51.394Z,92.59
2022-08-07T03:07:42.964Z,92.29
2022-08-07T03:10:07.473Z,93.02
2022-08-07T03:12:38.313Z,92.96
2022-08-07T03:15:09.403Z,93.17
2022-08-07T03:17:53.479Z,93.74
2022-08-07T03:20:21.820Z,94.02
2022-08-07T03:22:50.553Z,94.71
2022-08-07T03:25:20.938Z,94.71
2022-08-07T03:27:59.698Z,97.12
2022-08-07T03:30:37.293Z,94.87
2022-08-07T03:33:05.002Z,94.82
2022-08-07T03:35:43.774Z,95.24
2022-08-07T03:38:21.495Z,98.24
2022-08-07T03:40:57.722Z,98.53
2022-08-07T03:43:26.457Z,97.21
2022-08-07T03:45:53.775Z,96.80
2022-08-07T03:48:20.910Z,97.65
2022-08-07T03:50:55.796Z,97.96
2022-08-07T03:53:49.999Z,99.04
2022-08-07T03:56:16.602Z,98.99
2022-08-07T03:59:08.514Z,98.60
2022-08-07T04:01:32.241Z,98.60
2022-08-07T04:03:59.205Z,96.76
2022-08-07T04:06:37.383Z,96.32
2022-08-07T04:09:05.739Z,98.17
2022-08-07T04:12:28.182Z,98.78
2022-08-07T04:14:38.100Z,100.00
2022-08-07T04:17:21.314Z,99.71
2022-08-07T04:19:52.346Z,100.00
2022-08-07T04:22:23.696Z,100.00
2022-08-07T04:24:56.251Z,100.00
2022-08-07T04:27:26.367Z,100.00
2022-08-07T04:30:02.261Z,100.00
2022-08-07T04:32:34.733Z,100.00
2022-08-07T04:35:07.159Z,100.00
2022-08-07T04:37:52.945Z,100.00
2022-08-07T04:40:29.793Z,100.00
2022-08-07T04:43:02.169Z,100.00
2022-08-07T04:46:12.564Z,100.00
2022-08-07T04:49:18.084Z,100.00
2022-08-07T04:52:19.445Z,100.00
2022-08-07T04:55:14.979Z,100.00
2022-08-07T04:58:27.816Z,100.00
2022-08-07T05:01:29.910Z,100.00
2022-08-07T05:04:18.528Z,100.00
2022-08-07T05:06:56.060Z,100.00
2022-08-07T05:09:45.476Z,100.00
2022-08-07T05:12:27.241Z,100.00
2022-08-07T05:15:16.025Z,100.00
2022-08-07T05:17:57.118Z,100.00
2022-08-07T05:20:42.811Z,100.00
2022-08-07T05:23:47.298Z,100.00
2022-08-07T05:26:24.188Z,100.00
2022-08-07T05:28:57.968Z,100.00
2022-08-07T05:31:35.353Z,100.00
2022-08-07T05:34:10.906Z,100.00
2022-08-07T05:36:40.713Z,100.00
2022-08-07T05:40:04.912Z,100.00
2022-08-07T05:42:01.538Z,100.00
2022-08-07T05:44:34.006Z,100.00
2022-08-07T05:47:18.305Z,100.00
2022-08-07T05:49:48.786Z,100.00
2022-08-07T05:52:17.975Z,100.00
2022-08-07T05:54:55.613Z,100.00
2022-08-07T05:57:26.704Z,100.00
2022-08-07T05:59:59.094Z,100.00
2022-08-07T06:02:30.633Z,100.00
2022-08-07T06:05:03.754Z,100.00
2022-08-07T06:08:13.137Z,100.00
2022-08-07T06:10:19.443Z,100.00
2022-08-07T06:12:47.415Z,100.00
2022-08-07T06:15:16.189Z,100.00
2022-08-07T06:17:53.706Z,100.00
2022-08-07T06:20:25.522Z,100.00
2022-08-07T06:23:46.254Z,100.00
2022-08-07T06:25:59.717Z,100.00
2022-08-07T06:28:28.435Z,100.00
2022-08-07T06:30:56.251Z,100.00
2022-08-07T06:33:24.858Z,100.00
2022-08-07T06:36:12.273Z,100.00
2022-08-07T06:38:38.473Z,100.00
2022-08-07T06:41:12.926Z,100.00
2022-08-07T06:43:46.508Z,100.00
2022-08-07T06:46:31.458Z,100.00
2022-08-07T06:49:04.341Z,98.48
2022-08-07T06:51:35.081Z,97.29
2022-08-07T06:55:28.412Z,97.92
2022-08-07T06:56:53.814Z,98.42
2022-08-07T07:00:13.436Z,97.12
2022-08-07T07:02:48.177Z,95.40
2022-08-07T07:05:05.858Z,93.25
2022-08-07T07:07:59.999Z,93.22
2022-08-07T07:10:28.308Z,90.72
2022-08-07T07:13:02.384Z,90.93
2022-08-07T07:15:36.058Z,90.27
2022-08-07T07:18:37.676Z,87.40
2022-08-07T07:21:13.535Z,86.04
2022-08-07T07:24:08.527Z,83.55
2022-08-07T07:26:37.157Z,83.89
2022-08-07T07:29:40.118Z,83.37
2022-08-07T07:32:05.785Z,83.29
2022-08-07T07:34:36.399Z,84.02
2022-08-07T07:37:21.510Z,84.47
2022-08-07T07:40:00.050Z,87.35
2022-08-07T07:42:32.777Z,86.31
2022-08-07T07:45:05.761Z,86.89
2022-08-07T07:47:42.808Z,86.46
2022-08-07T07:50:35.014Z,85.96
2022-08-07T07:53:20.324Z,85.64
2022-08-07T07:55:54.749Z,85.63
2022-08-07T07:58:29.619Z,86.83
2022-08-07T08:00:58.675Z,86.00
2022-08-07T08:04:09.966Z,84.36
2022-08-07T08:06:17.879Z,84.21
2022-08-07T08:08:46.200Z,83.69
2022-08-07T08:11:17.832Z,82.76
2022-08-07T08:13:53.742Z,82.16
2022-08-07T08:16:29.925Z,82.31
2022-08-07T08:19:00.328Z,82.15
2022-08-07T08:22:03.316Z,81.99
2022-08-07T08:25:04.564Z,81.00
2022-08-07T08:27:51.981Z,79.35
2022-08-07T08:30:25.770Z,78.09
2022-08-07T08:32:59.617Z,76.42
2022-08-07T08:35:28.874Z,76.14
2022-08-07T08:38:06.878Z,75.98
2022-08-07T08:40:43.844Z,74.68
2022-08-07T08:43:22.079Z,73.81
2022-08-07T08:46:25.297Z,73.12
2022-08-07T08:49:46.338Z,73.19
2022-08-07T08:52:32.301Z,72.15
2022-08-07T08:55:08.924Z,71.77
2022-08-07T08:57:52.437Z,71.79
2022-08-07T09:00:21.082Z,71.00
2022-08-07T09:03:15.773Z,71.51
2022-08-07T09:05:55.788Z,70.76
2022-08-07T09:08:42.708Z,70.45
2022-08-07T09:11:50.592Z,69.83
2022-08-07T09:14:41.126Z,69.46
2022-08-07T09:17:27.651Z,69.26
2022-08-07T09:20:58.347Z,68.90
2022-08-07T09:24:53.749Z,67.39
2022-08-07T09:27:11.797Z,65.84
2022-08-07T09:30:03.759Z,66.13
2022-08-07T09:32:49.504Z,64.92
2022-08-07T09:36:04.972Z,64.69
2022-08-07T09:39:52.839Z,62.53
2022-08-07T09:42:34.926Z,62.93
2022-08-07T09:47:26.254Z,62.91
2022-08-07T09:48:55.993Z,63.35
2022-08-07T09:52:10.034Z,62.59
2022-08-07T09:54:41.622Z,61.19
2022-08-07T09:57:54.521Z,59.73
2022-08-07T10:00:31.822Z,57.88
2022-08-07T10:04:03.820Z,57.70
2022-08-07T10:06:25.222Z,58.38
2022-08-07T10:08:56.920Z,58.23
2022-08-07T10:12:00.136Z,56.70
2022-08-07T10:14:55.049Z,56.35
2022-08-07T10:18:01.349Z,56.16
2022-08-07T10:20:54.627Z,55.59
2022-08-07T10:24:06.481Z,54.98
2022-08-07T10:26:35.830Z,55.32
2022-08-07T10:29:08.607Z,55.03
2022-08-07T10:32:51.313Z,54.92
2022-08-07T10:35:27.025Z,53.39
2022-08-07T10:39:05.445Z,52.93
2022-08-07T10:41:52.339Z,53.07
2022-08-07T10:44:37.552Z,52.71
2022-08-07T10:47:17.768Z,51.59
2022-08-07T10:49:56.953Z,51.66
2022-08-07T10:52:58.275Z,50.48
2022-08-07T10:55:37.934Z,50.49
2022-08-07T10:58:36.650Z,51.34
2022-08-07T11:01:23.526Z,49.71
2022-08-07T11:04:16.771Z,48.82
2022-08-07T11:06:58.389Z,48.57
2022-08-07T11:10:10.259Z,48.21
2022-08-07T11:12:31.778Z,47.17
2022-08-07T11:15:14.443Z,46.68
2022-08-07T11:18:12.549Z,46.20
2022-08-07T11:20:49.489Z,46.91
2022-08-07T11:23:50.698Z,47.15
2022-08-07T11:26:50.097Z,46.97
2022-08-07T11:29:40.866Z,45.68
2022-08-07T11:32:33.179Z,44.55
2022-08-07T11:35:06.335Z,44.87
2022-08-07T11:37:58.067Z,43.92
2022-08-07T11:41:09.411Z,43.07
2022-08-07T11:44:12.145Z,42.12
2022-08-07T11:46:40.327Z,41.23
2022-08-07T11:50:11.345Z,40.81
2022-08-07T11:52:49.764Z,40.45
2022-08-07T11:56:09.719Z,39.87
2022-08-07T11:58:41.611Z,39.96
2022-08-07T12:01:59.042Z,39.03
2022-08-07T12:04:53.783Z,38.44
2022-08-07T12:07:27.551Z,38.18
2022-08-07T12:10:05.599Z,36.66
2022-08-07T12:12:46.651Z,36.64
2022-08-07T12:15:58.025Z,36.91
2022-08-07T12:18:29.746Z,37.32
2022-08-07T12:21:55.131Z,37.30
2022-08-07T12:24:37.691Z,37.58
2022-08-07T12:27:05.207Z,37.11
2022-08-07T12:29:46.171Z,36.31
2022-08-07T12:32:24.535Z,37.19
2022-08-07T12:34:55.986Z,38.06
2022-08-07T12:37:28.304Z,37.61
2022-08-07T12:40:44.115Z,36.97
2022-08-07T12:43:10.187Z,36.92
2022-08-07T12:46:15.905Z,36.68
2022-08-07T12:49:25.478Z,34.77
2022-08-07T12:52:13.702Z,34.49
2022-08-07T12:55:05.251Z,34.67
2022-08-07T12:57:39.328Z,35.17
2022-08-07T13:00:35.964Z,34.93
2022-08-07T13:03:27.019Z,34.60
2022-08-07T13:06:27.277Z,34.49
2022-08-07T13:10:19.499Z,34.14
2022-08-07T13:12:19.878Z,32.75
2022-08-07T13:15:23.735Z,32.87
2022-08-07T13:18:25.914Z,32.23
2022-08-07T13:21:02.730Z,31.26
2022-08-07T13:24:01.441Z,30.98
2022-08-07T13:26:49.183Z,31.85
2022-08-07T13:29:23.812Z,32.10
2022-08-07T13:32:31.259Z,31.58
2022-08-07T13:35:12.386Z,31.67
2022-08-07T13:37:55.502Z,31.86
2022-08-07T13:40:35.197Z,31.84
2022-08-07T13:43:13.354Z,31.47
2022-08-07T13:46:10.764Z,31.39
2022-08-07T13:48:35.018Z,31.39
2022-08-07T13:51:26.810Z,31.03
2022-08-07T13:54:01.469Z,30.21
2022-08-07T13:56:36.202Z,30.00
2022-08-07T13:59:15.800Z,30.13
2022-08-07T14:02:03.418Z,29.97
2022-08-07T14:04:35.648Z,29.45
2022-08-07T14:07:09.463Z,29.34
2022-08-07T14:10:17.590Z,29.07
2022-08-07T14:12:57.651Z,28.90
2022-08-07T14:15:40.529Z,28.56
2022-08-07T14:18:29.240Z,28.54
2022-08-07T14:21:07.951Z,28.54
2022-08-07T14:24:00.391Z,29.11
2022-08-07T14:26:35.853Z,29.30
2022-08-07T14:30:04.985Z,29.00
2022-08-07T14:31:56.529Z,29.38
2022-08-07T14:34:29.884Z,28.80
2022-08-07T14:37:02.041Z,28.90
2022-08-07T14:40:16.511Z,28.94
2022-08-07T14:42:31.301Z,28.46
2022-08-07T14:45:21.457Z,28.38
2022-08-07T14:50:42.916Z,28.27
2022-08-07T14:53:13.796Z,28.00
2022-08-07T14:55:55.388Z,27.84
2022-08-07T14:58:27.530Z,27.95
2022-08-07T15:00:55.452Z,27.50
2022-08-07T15:03:51.410Z,26.75
2022-08-07T15:06:21.053Z,26.85
2022-08-07T15:08:55.705Z,26.76
2022-08-07T15:11:53.379Z,26.67
2022-08-07T15:14:20.121Z,26.23
2022-08-07T15:17:13.690Z,26.10
2022-08-07T15:20:33.291Z,26.54
2022-08-07T15:22:51.704Z,26.17
2022-08-07T15:25:36.974Z,26.44
2022-08-07T15:28:34.802Z,25.54
2022-08-07T15:31:04.796Z,25.22
2022-08-07T15:33:36.166Z,25.14
2022-08-07T15:36:07.934Z,24.92
2022-08-07T15:38:59.361Z,24.57
2022-08-07T15:42:43.572Z,24.24
2022-08-07T15:44:21.300Z,23.45
2022-08-07T15:47:08.695Z,24.11
2022-08-07T15:50:03.948Z,23.83
2022-08-07T15:52:30.107Z,23.57
2022-08-07T15:55:02.284Z,22.75
2022-08-07T15:57:47.911Z,23.75
2022-08-07T16:00:31.620Z,23.92
2022-08-07T16:03:21.940Z,23.70
2022-08-07T16:05:59.020Z,23.67
2022-08-07T16:08:37.812Z,23.91
2022-08-07T16:11:28.785Z,23.87
2022-08-07T16:14:29.194Z,23.85
2022-08-07T16:17:16.207Z,23.70
2022-08-07T16:20:32.957Z,23.35
2022-08-07T16:23:53.027Z,23.39
2022-08-07T16:26:30.891Z,22.78
2022-08-07T16:30:06.461Z,22.67
2022-08-07T16:32:03.962Z,21.98
2022-08-07T16:34:50.966Z,21.90
2022-08-07T16:38:05.902Z,22.08
2022-08-07T16:41:09.991Z,21.74
2022-08-07T16:44:02.296Z,21.61
2022-08-07T16:47:04.868Z,22.06
2022-08-07T16:50:27.054Z,22.01
2022-08-07T16:52:52.590Z,21.43
2022-08-07T16:55:28.894Z,21.48
2022-08-07T16:59:10.236Z,20.71
2022-08-07T17:01:56.577Z,20.84
2022-08-07T17:04:58.665Z,20.87
2022-08-07T17:07:56.021Z,21.32
2022-08-07T17:10:32.738Z,21.46
2022-08-07T17:13:40.368Z,21.66
2022-08-07T17:16:22.103Z,21.11
2022-08-07T17:18:51.580Z,21.39
2022-08-07T17:21:51.414Z,21.47
2022-08-07T17:24:34.604Z,21.59
2022-08-07T17:27:19.655Z,21.38
2022-08-07T17:30:15.476Z,21.63
2022-08-07T17:32:59.844Z,21.10
2022-08-07T17:36:02.691Z,21.01
2022-08-07T17:38:44.395Z,20.90
2022-08-07T17:42:04.611Z,21.41
2022-08-07T17:44:41.437Z,20.92
2022-08-07T17:47:38.035Z,21.23
2022-08-07T17:50:19.237Z,20.87
2022-08-07T17:53:00.524Z,21.04
2022-08-07T17:56:01.335Z,21.02
2022-08-07T17:58:50.579Z,20.41
2022-08-07T18:01:49.481Z,20.37
2022-08-07T18:04:34.461Z,20.20
2022-08-07T18:07:22.547Z,20.42
2022-08-07T18:10:32.311Z,19.88
2022-08-07T18:12:59.916Z,20.04
2022-08-07T18:15:32.834Z,20.47
2022-08-07T18:18:45.311Z,20.44
2022-08-07T18:21:42.065Z,20.48
2022-08-07T18:24:33.117Z,19.72
2022-08-07T18:27:38.270Z,19.43
2022-08-07T18:30:31.185Z,20.03
2022-08-07T18:33:36.391Z,19.86
2022-08-07T18:36:15.777Z,20.38
2022-08-07T18:40:06.996Z,20.72
2022-08-07T18:42:13.439Z,21.02
2022-08-07T18:45:43.180Z,21.11
2022-08-07T18:50:05.649Z,21.11
2022-08-07T18:51:16.845Z,21.24
2022-08-07T18:54:30.714Z,21.26
2022-08-07T18:57:30.859Z,21.40
2022-08-07T19:00:33.254Z,21.86
2022-08-07T19:03:17.359Z,21.89
2022-08-07T19:06:03.267Z,22.28
2022-08-07T19:08:52.926Z,22.31
2022-08-07T19:11:36.210Z,22.52
2022-08-07T19:14:17.058Z,22.72
2022-08-07T19:17:08.206Z,22.98
2022-08-07T19:20:03.443Z,23.21
2022-08-07T19:22:44.833Z,23.42
2022-08-07T19:26:23.199Z,23.64
2022-08-07T19:28:29.855Z,23.49
2022-08-07T19:31:42.837Z,23.75
2022-08-07T19:33:59.602Z,23.76
2022-08-07T19:36:30.576Z,24.00
2022-08-07T19:39:00.368Z,24.00
2022-08-07T19:42:05.548Z,24.18
2022-08-07T19:44:41.195Z,24.08
2022-08-07T19:47:18.419Z,24.31
2022-08-07T19:49:58.430Z,24.23
2022-08-07T19:52:31.013Z,24.30
2022-08-07T19:55:03.057Z,24.29
2022-08-07T19:58:02.755Z,24.65
2022-08-07T20:00:29.846Z,24.47
2022-08-07T20:03:00.539Z,24.55
2022-08-07T20:05:59.589Z,24.43
2022-08-07T20:08:28.468Z,24.60
2022-08-07T20:11:03.600Z,24.50
2022-08-07T20:13:46.651Z,24.58
2022-08-07T20:16:35.641Z,24.91
2022-08-07T20:19:06.200Z,24.89
2022-08-07T20:21:47.777Z,25.00
2022-08-07T20:24:22.245Z,25.21
2022-08-07T20:26:52.194Z,25.04
2022-08-07T20:29:48.737Z,25.09
2022-08-07T20:32:25.250Z,25.29
2022-08-07T20:34:57.396Z,25.38
2022-08-07T20:37:29.759Z,25.15
2022-08-07T20:40:32.000Z,25.30
2022-08-07T20:42:57.917Z,25.32
2022-08-07T20:45:33.370Z,25.55
2022-08-07T20:48:28.709Z,25.78
2022-08-07T20:51:00.011Z,25.81
2022-08-07T20:54:04.368Z,25.91
2022-08-07T20:56:16.042Z,25.83
2022-08-07T20:58:48.099Z,25.73
2022-08-07T21:01:22.042Z,25.67
2022-08-07T21:04:13.363Z,25.82
2022-08-07T21:06:42.535Z,26.09
2022-08-07T21:09:24.258Z,26.01
2022-08-07T21:11:57.154Z,26.32
2022-08-07T21:14:32.797Z,26.84
2022-08-07T21:18:03.778Z,26.46
2022-08-07T21:20:05.262Z,26.83
2022-08-07T21:22:39.912Z,26.94
2022-08-07T21:25:17.680Z,26.89
2022-08-07T21:28:02.145Z,26.99
2022-08-07T21:30:42.828Z,26.81
2022-08-07T21:33:24.569Z,27.04
2022-08-07T21:36:31.292Z,27.18
2022-08-07T21:39:45.973Z,27.31
2022-08-07T21:42:47.095Z,27.42
2022-08-07T21:46:08.413Z,27.47
2022-08-07T21:48:44.080Z,27.47
2022-08-07T21:51:32.279Z,27.65
2022-08-07T21:54:18.700Z,27.75
2022-08-07T21:57:39.924Z,27.51
2022-08-07T22:00:23.271Z,27.64
2022-08-07T22:03:16.519Z,27.35
2022-08-07T22:05:51.522Z,27.56
2022-08-07T22:08:26.715Z,27.38
2022-08-07T22:11:02.627Z,27.64
2022-08-07T22:13:51.766Z,27.56
2022-08-07T22:16:38.870Z,27.60
2022-08-07T22:19:30.014Z,27.61
2022-08-07T22:22:27.696Z,27.53
2022-08-07T22:25:05.728Z,27.62
2022-08-07T22:28:08.371Z,27.52
2022-08-07T22:30:43.554Z,27.49
2022-08-07T22:33:53.221Z,27.64
2022-08-07T22:36:29.638Z,27.82
2022-08-07T22:39:05.052Z,28.06
2022-08-07T22:42:03.280Z,27.93
2022-08-07T22:44:58.126Z,28.05
2022-08-07T22:47:36.329Z,28.16
2022-08-07T22:50:34.011Z,27.83
2022-08-07T22:54:07.946Z,28.20
2022-08-07T22:56:29.877Z,28.34
2022-08-07T22:58:56.336Z,28.61
2022-08-07T23:01:49.724Z,28.41
2022-08-07T23:04:57.696Z,28.57
2022-08-07T23:07:52.928Z,28.62
2022-08-07T23:10:42.212Z,28.69
2022-08-07T23:13:48.415Z,28.94
2022-08-07T23:16:43.300Z,29.14
2022-08-07T23:19:57.782Z,29.23
2022-08-07T23:22:39.883Z,29.85
2022-08-07T23:25:32.731Z,31.28
2022-08-07T23:28:22.647Z,32.06
2022-08-07T23:31:18.659Z,32.87
2022-08-07T23:34:38.085Z,32.63
2022-08-07T23:37:30.193Z,32.67
2022-08-07T23:40:31.310Z,32.84
2022-08-07T23:43:16.974Z,33.00
2022-08-07T23:46:03.285Z,32.68
2022-08-07T23:48:48.299Z,33.38
2022-08-07T23:53:17.042Z,33.63
2022-08-07T23:54:52.087Z,34.20
2022-08-07T23:58:01.532Z,34.58
